Howardton, Illinois
Current Conditions -  °F | °C
As of 2:42 AM on Sunday 26 Oct 2014 (Local Time) from KMDH Reporting Station
Haze Haze  
Wind Chill: 50°   Ceiling: Unl
Heat Index: 50°   Visibility: 1.7mi
Dew Point: 48°   Wind: 0mph
Humidity: 93%   Direction: NA
Pressure: 30.02"   Gusts: NA
Location:  37.6428°N, 89.4674°W
Report Text: KMDH 260742Z AUTO 00000KT 1 3/4SM BR CLR 10/09 A3002 RMK AO2 VIS 1V4 T01000089
Loading
Personal Weather Stations






























Interactive Weather Map
Tropical Storm Tracking
New forecast layout! Learn more

10-Day Weather Forecast

Advertisements
Track Severe Weather on mobile